Terminal Aerodrome Forecast
Issued by NWS

Home | Current Version | Previous Version | Text Only | Print | Product List | Glossary On
Versions: 1 2 3 4 5 6 7 8 9 10 11 12 13 14 15 16 17 18 19 20 21
000
FTAK31 PAFA 231738
TAFAFA
TAF
PAFA 231738Z 2318/2424 VRB03KT P6SM BKN025 OVC070
     FM240000 VRB03KT P6SM SCT025 BKN050
     FM241200 VRB04KT P6SM SCT015 BKN025 OVC050
     FM241500 VRB04KT P6SM VCSH SCT015 BKN025 OVC050=

USA.gov is the U.S. government's official web portal to all federal, state and local government web resources and services.